CNT6 weather

Elmira Airport
Elmira, Ontario, Canada

Public forecast

Using degrees Celsius for public forecast. Weather courtesy of forecast.io.

Closest aviation weather report (METAR) to Elmira Airport

Closest report is Waterloo Airport, 12.3 nm (22.7 km) SE. Retrieved 2019/10/22 07:00 UTC (59 minutes ago):

CYKF 220700Z AUTO 15009KT 9SM -RA BKN010 BKN014 OVC100 12/12 A2974 RMK SLP073 DENSITY ALT 1100FT

Closest aviation forecast (TAF) to Elmira Airport

Closest forecast is Waterloo Airport, 12.3 nm (22.7 km) SE. Retrieved 2019/10/22 08:39 UTC (0 seconds ago):

TAF CYKF 220738Z 2208/2220 15010KT P6SM -RA BKN012 OVC100 TEMPO 2208/2210 4SM -RA BR BKN008 OVC015 PROB30 2208/2210 21/2SM RA BR OVC005 FM221000 18012G22KT 11/2SM -RA BR OVC005 TEMPO 2210/2215 5SM -RA BR OVC010 BECMG 2212/2214 20012G22KT FM221800 23015G25KT P6SM BKN025 TEMPO 2218/2220 P6SM -SHRA RMK FCST BASED ON AUTO OBS NXT FCST BY 221400Z